sensor_id;sensor_type;location;lat;lon;timestamp;P1;durP1;ratioP1;P2;durP2;ratioP2
2756;SDS011;1386;50.862;6.494;2023-02-01T00:00:17;12.60;;;7.23;;
2756;SDS011;1386;50.862;6.494;2023-02-01T00:02:44;17.33;;;7.27;;
2756;SDS011;1386;50.862;6.494;2023-02-01T00:05:11;13.50;;;7.00;;
2756;SDS011;1386;50.862;6.494;2023-02-01T00:07:38;18.03;;;8.03;;
2756;SDS011;1386;50.862;6.494;2023-02-01T00:10:06;16.23;;;7.50;;
2756;SDS011;1386;50.862;6.494;2023-02-01T00:12:35;15.03;;;6.50;;
2756;SDS011;1386;50.862;6.494;2023-02-01T00:15:07;11.63;;;6.17;;
2756;SDS011;1386;50.862;6.494;2023-02-01T00:17:34;15.47;;;7.03;;
2756;SDS011;1386;50.862;6.494;2023-02-01T00:20:01;19.13;;;6.70;;
2756;SDS011;1386;50.862;6.494;2023-02-01T00:22:28;15.87;;;7.50;;
2756;SDS011;1386;50.862;6.494;2023-02-01T00:24:55;20.73;;;8.20;;
2756;SDS011;1386;50.862;6.494;2023-02-01T00:27:22;14.63;;;6.07;;
2756;SDS011;1386;50.862;6.494;2023-02-01T00:29:50;18.90;;;7.10;;
2756;SDS011;1386;50.862;6.494;2023-02-01T00:32:17;16.50;;;6.10;;
2756;SDS011;1386;50.862;6.494;2023-02-01T00:34:44;14.40;;;6.20;;
2756;SDS011;1386;50.862;6.494;2023-02-01T00:37:10;15.67;;;6.07;;
2756;SDS011;1386;50.862;6.494;2023-02-01T00:39:37;9.60;;;5.37;;
2756;SDS011;1386;50.862;6.494;2023-02-01T00:42:04;13.60;;;5.67;;
2756;SDS011;1386;50.862;6.494;2023-02-01T00:44:31;8.53;;;6.07;;
2756;SDS011;1386;50.862;6.494;2023-02-01T00:47:01;14.93;;;7.00;;
2756;SDS011;1386;50.862;6.494;2023-02-01T00:49:28;9.20;;;6.80;;
2756;SDS011;1386;50.862;6.494;2023-02-01T00:51:55;14.77;;;6.23;;
2756;SDS011;1386;50.862;6.494;2023-02-01T00:54:22;18.33;;;7.80;;
2756;SDS011;1386;50.862;6.494;2023-02-01T00:56:49;12.50;;;6.20;;
2756;SDS011;1386;50.862;6.494;2023-02-01T00:59:15;12.53;;;6.77;;
2756;SDS011;1386;50.862;6.494;2023-02-01T01:01:42;16.80;;;8.60;;
2756;SDS011;1386;50.862;6.494;2023-02-01T01:04:11;18.03;;;7.17;;
2756;SDS011;1386;50.862;6.494;2023-02-01T01:06:37;17.27;;;7.83;;
2756;SDS011;1386;50.862;6.494;2023-02-01T01:09:05;16.37;;;8.57;;
2756;SDS011;1386;50.862;6.494;2023-02-01T01:11:34;14.63;;;8.70;;
2756;SDS011;1386;50.862;6.494;2023-02-01T01:14:02;14.60;;;9.10;;
2756;SDS011;1386;50.862;6.494;2023-02-01T01:16:30;17.03;;;9.10;;
2756;SDS011;1386;50.862;6.494;2023-02-01T01:18:57;18.60;;;8.73;;
2756;SDS011;1386;50.862;6.494;2023-02-01T01:21:26;24.03;;;9.90;;
2756;SDS011;1386;50.862;6.494;2023-02-01T01:23:53;21.90;;;9.17;;
2756;SDS011;1386;50.862;6.494;2023-02-01T01:26:21;16.93;;;8.70;;
2756;SDS011;1386;50.862;6.494;2023-02-01T01:28:51;13.87;;;8.07;;
2756;SDS011;1386;50.862;6.494;2023-02-01T01:31:20;18.27;;;9.13;;
2756;SDS011;1386;50.862;6.494;2023-02-01T01:33:47;21.00;;;8.20;;
2756;SDS011;1386;50.862;6.494;2023-02-01T01:36:15;17.90;;;8.57;;
2756;SDS011;1386;50.862;6.494;2023-02-01T01:38:44;16.23;;;9.10;;
2756;SDS011;1386;50.862;6.494;2023-02-01T01:41:12;13.97;;;8.37;;
2756;SDS011;1386;50.862;6.494;2023-02-01T01:43:45;14.80;;;8.90;;
2756;SDS011;1386;50.862;6.494;2023-02-01T01:46:17;18.70;;;9.20;;
2756;SDS011;1386;50.862;6.494;2023-02-01T01:48:45;17.30;;;9.87;;
2756;SDS011;1386;50.862;6.494;2023-02-01T01:51:16;16.33;;;9.73;;
2756;SDS011;1386;50.862;6.494;2023-02-01T01:53:50;24.20;;;9.40;;
2756;SDS011;1386;50.862;6.494;2023-02-01T01:56:25;17.67;;;8.30;;
2756;SDS011;1386;50.862;6.494;2023-02-01T01:58:53;26.13;;;10.83;;
2756;SDS011;1386;50.862;6.494;2023-02-01T02:01:21;16.37;;;9.07;;
2756;SDS011;1386;50.862;6.494;2023-02-01T02:03:48;21.97;;;8.63;;
2756;SDS011;1386;50.862;6.494;2023-02-01T02:06:17;20.30;;;8.77;;
2756;SDS011;1386;50.862;6.494;2023-02-01T02:08:54;17.77;;;8.97;;
2756;SDS011;1386;50.862;6.494;2023-02-01T02:11:21;20.60;;;8.13;;
2756;SDS011;1386;50.862;6.494;2023-02-01T02:13:48;15.67;;;8.47;;
2756;SDS011;1386;50.862;6.494;2023-02-01T02:16:30;19.77;;;8.60;;
2756;SDS011;1386;50.862;6.494;2023-02-01T02:19:10;21.43;;;8.77;;
2756;SDS011;1386;50.862;6.494;2023-02-01T02:22:02;14.33;;;8.00;;
2756;SDS011;1386;50.862;6.494;2023-02-01T02:24:45;17.70;;;7.43;;
2756;SDS011;1386;50.862;6.494;2023-02-01T02:27:35;12.53;;;7.27;;
2756;SDS011;1386;50.862;6.494;2023-02-01T02:30:32;21.90;;;7.90;;
2756;SDS011;1386;50.862;6.494;2023-02-01T02:36:09;12.97;;;7.30;;
2756;SDS011;1386;50.862;6.494;2023-02-01T02:38:41;17.13;;;7.07;;
2756;SDS011;1386;50.862;6.494;2023-02-01T02:41:14;17.53;;;7.67;;
2756;SDS011;1386;50.862;6.494;2023-02-01T02:43:58;12.70;;;7.33;;
2756;SDS011;1386;50.862;6.494;2023-02-01T02:46:48;12.63;;;6.50;;
2756;SDS011;1386;50.862;6.494;2023-02-01T02:49:36;14.63;;;7.93;;
2756;SDS011;1386;50.862;6.494;2023-02-01T02:52:09;19.67;;;7.53;;
2756;SDS011;1386;50.862;6.494;2023-02-01T02:54:59;15.33;;;7.20;;
2756;SDS011;1386;50.862;6.494;2023-02-01T02:57:30;13.77;;;6.67;;
2756;SDS011;1386;50.862;6.494;2023-02-01T03:00:18;11.50;;;7.20;;
2756;SDS011;1386;50.862;6.494;2023-02-01T03:03:05;15.63;;;8.10;;
2756;SDS011;1386;50.862;6.494;2023-02-01T03:05:52;16.43;;;7.40;;
2756;SDS011;1386;50.862;6.494;2023-02-01T03:08:19;15.50;;;7.77;;
2756;SDS011;1386;50.862;6.494;2023-02-01T03:10:48;11.80;;;6.40;;
2756;SDS011;1386;50.862;6.494;2023-02-01T03:13:22;14.33;;;6.67;;
2756;SDS011;1386;50.862;6.494;2023-02-01T03:15:57;18.50;;;6.60;;
2756;SDS011;1386;50.862;6.494;2023-02-01T03:18:31;15.30;;;6.33;;
2756;SDS011;1386;50.862;6.494;2023-02-01T03:21:04;13.07;;;8.20;;
2756;SDS011;1386;50.862;6.494;2023-02-01T03:23:34;18.50;;;7.67;;
2756;SDS011;1386;50.862;6.494;2023-02-01T03:26:03;16.03;;;8.00;;
2756;SDS011;1386;50.862;6.494;2023-02-01T03:28:33;19.13;;;8.03;;
2756;SDS011;1386;50.862;6.494;2023-02-01T03:31:02;18.50;;;7.97;;
2756;SDS011;1386;50.862;6.494;2023-02-01T03:33:29;14.33;;;8.67;;
2756;SDS011;1386;50.862;6.494;2023-02-01T09:35:56;19.80;;;6.67;;
2756;SDS011;1386;50.862;6.494;2023-02-01T09:38:23;13.43;;;4.20;;
2756;SDS011;1386;50.862;6.494;2023-02-01T09:40:52;19.33;;;6.70;;
2756;SDS011;1386;50.862;6.494;2023-02-01T09:43:32;12.77;;;5.80;;
2756;SDS011;1386;50.862;6.494;2023-02-01T09:46:11;16.90;;;5.17;;
2756;SDS011;1386;50.862;6.494;2023-02-01T09:48:46;10.97;;;4.80;;
2756;SDS011;1386;50.862;6.494;2023-02-01T09:51:17;15.13;;;5.10;;
2756;SDS011;1386;50.862;6.494;2023-02-01T09:53:51;11.83;;;4.73;;
2756;SDS011;1386;50.862;6.494;2023-02-01T09:56:25;16.27;;;5.00;;
2756;SDS011;1386;50.862;6.494;2023-02-01T09:59:00;14.60;;;5.90;;
2756;SDS011;1386;50.862;6.494;2023-02-01T10:01:42;10.93;;;4.37;;
2756;SDS011;1386;50.862;6.494;2023-02-01T10:04:10;13.53;;;4.73;;
2756;SDS011;1386;50.862;6.494;2023-02-01T10:26:53;15.13;;;4.60;;
2756;SDS011;1386;50.862;6.494;2023-02-01T10:29:25;17.50;;;5.63;;
2756;SDS011;1386;50.862;6.494;2023-02-01T10:31:58;10.93;;;5.10;;
2756;SDS011;1386;50.862;6.494;2023-02-01T10:34:26;11.20;;;5.00;;
2756;SDS011;1386;50.862;6.494;2023-02-01T10:36:59;14.70;;;6.03;;
2756;SDS011;1386;50.862;6.494;2023-02-01T10:39:27;15.73;;;4.50;;
2756;SDS011;1386;50.862;6.494;2023-02-01T10:41:56;14.27;;;4.77;;
2756;SDS011;1386;50.862;6.494;2023-02-01T10:44:24;14.20;;;5.17;;
2756;SDS011;1386;50.862;6.494;2023-02-01T10:46:52;12.57;;;5.30;;
2756;SDS011;1386;50.862;6.494;2023-02-01T10:49:21;16.70;;;6.27;;
2756;SDS011;1386;50.862;6.494;2023-02-01T10:51:52;14.90;;;5.53;;
2756;SDS011;1386;50.862;6.494;2023-02-01T10:54:31;18.43;;;5.10;;
2756;SDS011;1386;50.862;6.494;2023-02-01T10:57:01;15.33;;;4.83;;
2756;SDS011;1386;50.862;6.494;2023-02-01T10:59:29;10.57;;;4.30;;
2756;SDS011;1386;50.862;6.494;2023-02-01T11:01:58;14.70;;;4.67;;
2756;SDS011;1386;50.862;6.494;2023-02-01T11:04:36;16.20;;;5.33;;
2756;SDS011;1386;50.862;6.494;2023-02-01T11:07:06;14.60;;;4.90;;
2756;SDS011;1386;50.862;6.494;2023-02-01T11:09:53;19.13;;;6.03;;
2756;SDS011;1386;50.862;6.494;2023-02-01T11:15:23;13.63;;;4.30;;
2756;SDS011;1386;50.862;6.494;2023-02-01T11:17:53;17.10;;;5.20;;
2756;SDS011;1386;50.862;6.494;2023-02-01T11:20:31;18.13;;;5.50;;
2756;SDS011;1386;50.862;6.494;2023-02-01T11:23:04;13.97;;;5.00;;
2756;SDS011;1386;50.862;6.494;2023-02-01T11:25:31;19.17;;;5.40;;
2756;SDS011;1386;50.862;6.494;2023-02-01T11:28:04;17.77;;;5.40;;
2756;SDS011;1386;50.862;6.494;2023-02-01T11:30:34;9.03;;;3.90;;
2756;SDS011;1386;50.862;6.494;2023-02-01T11:33:05;12.33;;;4.13;;
2756;SDS011;1386;50.862;6.494;2023-02-01T11:35:36;11.13;;;4.43;;
2756;SDS011;1386;50.862;6.494;2023-02-01T11:59:43;16.30;;;4.70;;
2756;SDS011;1386;50.862;6.494;2023-02-01T12:02:35;12.90;;;4.63;;
2756;SDS011;1386;50.862;6.494;2023-02-01T12:05:23;7.87;;;3.97;;
2756;SDS011;1386;50.862;6.494;2023-02-01T12:08:02;8.50;;;4.07;;
2756;SDS011;1386;50.862;6.494;2023-02-01T12:10:51;7.80;;;3.83;;
2756;SDS011;1386;50.862;6.494;2023-02-01T12:13:28;14.47;;;4.03;;
2756;SDS011;1386;50.862;6.494;2023-02-01T12:16:08;13.93;;;4.07;;
2756;SDS011;1386;50.862;6.494;2023-02-01T12:18:48;11.97;;;4.93;;
2756;SDS011;1386;50.862;6.494;2023-02-01T12:21:32;15.73;;;4.60;;
2756;SDS011;1386;50.862;6.494;2023-02-01T12:24:13;18.77;;;4.97;;
2756;SDS011;1386;50.862;6.494;2023-02-01T12:26:55;9.60;;;4.10;;
2756;SDS011;1386;50.862;6.494;2023-02-01T12:29:34;14.97;;;4.30;;
2756;SDS011;1386;50.862;6.494;2023-02-01T12:32:19;9.30;;;4.20;;
2756;SDS011;1386;50.862;6.494;2023-02-01T12:35:02;10.97;;;4.07;;
2756;SDS011;1386;50.862;6.494;2023-02-01T12:37:51;10.90;;;3.83;;
2756;SDS011;1386;50.862;6.494;2023-02-01T12:40:28;12.23;;;4.30;;
2756;SDS011;1386;50.862;6.494;2023-02-01T12:43:08;14.37;;;3.93;;
2756;SDS011;1386;50.862;6.494;2023-02-01T12:45:41;9.00;;;3.50;;
2756;SDS011;1386;50.862;6.494;2023-02-01T12:48:18;10.37;;;3.87;;
2756;SDS011;1386;50.862;6.494;2023-02-01T12:50:53;15.80;;;3.93;;
2756;SDS011;1386;50.862;6.494;2023-02-01T12:53:24;10.07;;;3.93;;
2756;SDS011;1386;50.862;6.494;2023-02-01T12:55:57;12.50;;;3.80;;
2756;SDS011;1386;50.862;6.494;2023-02-01T12:58:35;8.10;;;3.90;;
2756;SDS011;1386;50.862;6.494;2023-02-01T13:01:09;14.40;;;3.60;;
2756;SDS011;1386;50.862;6.494;2023-02-01T13:03:42;9.37;;;4.00;;
2756;SDS011;1386;50.862;6.494;2023-02-01T13:06:21;12.40;;;4.77;;
2756;SDS011;1386;50.862;6.494;2023-02-01T13:08:54;14.07;;;4.50;;
2756;SDS011;1386;50.862;6.494;2023-02-01T13:11:27;11.17;;;3.97;;
2756;SDS011;1386;50.862;6.494;2023-02-01T13:13:58;10.70;;;4.20;;
2756;SDS011;1386;50.862;6.494;2023-02-01T13:16:30;9.07;;;4.13;;
2756;SDS011;1386;50.862;6.494;2023-02-01T13:19:02;8.40;;;3.90;;
2756;SDS011;1386;50.862;6.494;2023-02-01T13:21:37;9.23;;;3.70;;
2756;SDS011;1386;50.862;6.494;2023-02-01T13:24:09;8.93;;;4.07;;
2756;SDS011;1386;50.862;6.494;2023-02-01T13:26:53;11.63;;;4.27;;
2756;SDS011;1386;50.862;6.494;2023-02-01T13:29:20;12.53;;;4.07;;
2756;SDS011;1386;50.862;6.494;2023-02-01T13:31:52;10.93;;;4.30;;
2756;SDS011;1386;50.862;6.494;2023-02-01T13:37:52;12.63;;;3.50;;
2756;SDS011;1386;50.862;6.494;2023-02-01T13:40:39;13.90;;;5.03;;
2756;SDS011;1386;50.862;6.494;2023-02-01T13:43:11;8.80;;;3.53;;
2756;SDS011;1386;50.862;6.494;2023-02-01T13:45:45;15.40;;;4.20;;
2756;SDS011;1386;50.862;6.494;2023-02-01T13:48:21;9.33;;;3.20;;
2756;SDS011;1386;50.862;6.494;2023-02-01T13:50:53;10.40;;;3.97;;
2756;SDS011;1386;50.862;6.494;2023-02-01T13:53:26;8.60;;;3.47;;
2756;SDS011;1386;50.862;6.494;2023-02-01T13:55:57;8.07;;;3.33;;
2756;SDS011;1386;50.862;6.494;2023-02-01T13:58:30;12.83;;;4.30;;
2756;SDS011;1386;50.862;6.494;2023-02-01T14:04:01;10.07;;;3.47;;
2756;SDS011;1386;50.862;6.494;2023-02-01T14:06:36;7.40;;;3.43;;
2756;SDS011;1386;50.862;6.494;2023-02-01T14:12:41;12.90;;;3.90;;
2756;SDS011;1386;50.862;6.494;2023-02-01T14:15:20;10.30;;;3.20;;
2756;SDS011;1386;50.862;6.494;2023-02-01T14:17:49;7.97;;;3.67;;
2756;SDS011;1386;50.862;6.494;2023-02-01T16:28:34;12.33;;;3.40;;
2756;SDS011;1386;50.862;6.494;2023-02-01T16:31:01;15.43;;;4.07;;
2756;SDS011;1386;50.862;6.494;2023-02-01T16:33:28;11.97;;;4.33;;
2756;SDS011;1386;50.862;6.494;2023-02-01T16:35:56;9.57;;;3.40;;
2756;SDS011;1386;50.862;6.494;2023-02-01T16:38:25;9.73;;;4.27;;
2756;SDS011;1386;50.862;6.494;2023-02-01T16:40:54;9.43;;;3.50;;
2756;SDS011;1386;50.862;6.494;2023-02-01T16:43:24;11.70;;;4.83;;
2756;SDS011;1386;50.862;6.494;2023-02-01T16:45:54;13.53;;;3.27;;
2756;SDS011;1386;50.862;6.494;2023-02-01T16:48:26;7.40;;;3.90;;
2756;SDS011;1386;50.862;6.494;2023-02-01T16:50:56;13.83;;;4.20;;
2756;SDS011;1386;50.862;6.494;2023-02-01T16:53:26;12.10;;;4.23;;
2756;SDS011;1386;50.862;6.494;2023-02-01T16:55:57;7.80;;;4.03;;
2756;SDS011;1386;50.862;6.494;2023-02-01T16:58:24;10.57;;;4.00;;
2756;SDS011;1386;50.862;6.494;2023-02-01T17:00:53;12.90;;;4.83;;
2756;SDS011;1386;50.862;6.494;2023-02-01T17:03:21;9.10;;;4.27;;
2756;SDS011;1386;50.862;6.494;2023-02-01T17:05:49;13.03;;;5.40;;
2756;SDS011;1386;50.862;6.494;2023-02-01T17:08:21;11.53;;;4.20;;
2756;SDS011;1386;50.862;6.494;2023-02-01T17:10:53;10.90;;;3.80;;
2756;SDS011;1386;50.862;6.494;2023-02-01T17:13:20;10.90;;;4.87;;
2756;SDS011;1386;50.862;6.494;2023-02-01T17:15:48;12.87;;;4.50;;
2756;SDS011;1386;50.862;6.494;2023-02-01T17:18:19;9.77;;;5.70;;
2756;SDS011;1386;50.862;6.494;2023-02-01T17:20:47;11.70;;;4.40;;
2756;SDS011;1386;50.862;6.494;2023-02-01T17:23:16;9.60;;;3.90;;
2756;SDS011;1386;50.862;6.494;2023-02-01T17:25:54;11.67;;;4.57;;
2756;SDS011;1386;50.862;6.494;2023-02-01T17:28:49;24.73;;;6.47;;
2756;SDS011;1386;50.862;6.494;2023-02-01T17:31:18;12.70;;;4.97;;
2756;SDS011;1386;50.862;6.494;2023-02-01T17:33:51;18.37;;;5.40;;
2756;SDS011;1386;50.862;6.494;2023-02-01T17:36:23;15.13;;;4.57;;
2756;SDS011;1386;50.862;6.494;2023-02-01T17:38:51;10.07;;;4.50;;
2756;SDS011;1386;50.862;6.494;2023-02-01T21:37:15;14.00;;;5.97;;
2756;SDS011;1386;50.862;6.494;2023-02-01T21:39:42;12.23;;;5.73;;
2756;SDS011;1386;50.862;6.494;2023-02-01T21:42:08;17.43;;;6.03;;
2756;SDS011;1386;50.862;6.494;2023-02-01T21:44:37;14.13;;;6.80;;
2756;SDS011;1386;50.862;6.494;2023-02-01T21:47:04;18.60;;;6.07;;
2756;SDS011;1386;50.862;6.494;2023-02-01T21:49:32;18.93;;;5.70;;
2756;SDS011;1386;50.862;6.494;2023-02-01T21:51:59;12.53;;;5.47;;
2756;SDS011;1386;50.862;6.494;2023-02-01T21:54:27;19.90;;;6.77;;
2756;SDS011;1386;50.862;6.494;2023-02-01T21:56:54;11.10;;;6.27;;
2756;SDS011;1386;50.862;6.494;2023-02-01T21:59:21;15.90;;;6.63;;
2756;SDS011;1386;50.862;6.494;2023-02-01T22:01:48;18.57;;;5.80;;
2756;SDS011;1386;50.862;6.494;2023-02-01T22:09:18;18.87;;;7.50;;
2756;SDS011;1386;50.862;6.494;2023-02-01T22:11:49;15.60;;;6.40;;
2756;SDS011;1386;50.862;6.494;2023-02-01T22:14:17;14.23;;;6.70;;
2756;SDS011;1386;50.862;6.494;2023-02-01T22:16:44;20.93;;;6.17;;
2756;SDS011;1386;50.862;6.494;2023-02-01T22:19:12;21.57;;;6.67;;
2756;SDS011;1386;50.862;6.494;2023-02-01T22:21:51;18.47;;;6.70;;
2756;SDS011;1386;50.862;6.494;2023-02-01T22:24:18;20.93;;;6.83;;
2756;SDS011;1386;50.862;6.494;2023-02-01T22:26:46;24.80;;;6.83;;
2756;SDS011;1386;50.862;6.494;2023-02-01T22:29:15;10.23;;;6.13;;
2756;SDS011;1386;50.862;6.494;2023-02-01T22:31:43;11.77;;;5.10;;
2756;SDS011;1386;50.862;6.494;2023-02-01T22:34:10;16.83;;;6.97;;
2756;SDS011;1386;50.862;6.494;2023-02-01T22:36:38;16.13;;;6.37;;
2756;SDS011;1386;50.862;6.494;2023-02-01T22:39:04;16.27;;;6.27;;
2756;SDS011;1386;50.862;6.494;2023-02-01T22:41:32;21.00;;;6.20;;
2756;SDS011;1386;50.862;6.494;2023-02-01T22:43:58;23.00;;;7.27;;
2756;SDS011;1386;50.862;6.494;2023-02-01T22:46:27;16.80;;;5.93;;
2756;SDS011;1386;50.862;6.494;2023-02-01T22:48:55;16.13;;;5.77;;
2756;SDS011;1386;50.862;6.494;2023-02-01T22:51:23;18.63;;;6.20;;
2756;SDS011;1386;50.862;6.494;2023-02-01T22:53:51;12.30;;;5.20;;
2756;SDS011;1386;50.862;6.494;2023-02-01T22:56:22;21.60;;;6.17;;
2756;SDS011;1386;50.862;6.494;2023-02-01T22:58:52;13.77;;;5.73;;
2756;SDS011;1386;50.862;6.494;2023-02-01T23:01:20;25.50;;;6.50;;
2756;SDS011;1386;50.862;6.494;2023-02-01T23:03:48;19.53;;;6.47;;
2756;SDS011;1386;50.862;6.494;2023-02-01T23:06:15;13.60;;;6.00;;
2756;SDS011;1386;50.862;6.494;2023-02-01T23:08:43;16.80;;;6.00;;
2756;SDS011;1386;50.862;6.494;2023-02-01T23:11:11;23.47;;;8.70;;
2756;SDS011;1386;50.862;6.494;2023-02-01T23:13:38;15.23;;;7.13;;
2756;SDS011;1386;50.862;6.494;2023-02-01T23:16:06;18.50;;;5.60;;
2756;SDS011;1386;50.862;6.494;2023-02-01T23:18:34;26.27;;;6.40;;
2756;SDS011;1386;50.862;6.494;2023-02-01T23:21:03;21.90;;;6.50;;
2756;SDS011;1386;50.862;6.494;2023-02-01T23:23:31;17.30;;;6.20;;
2756;SDS011;1386;50.862;6.494;2023-02-01T23:25:58;16.03;;;6.00;;
2756;SDS011;1386;50.862;6.494;2023-02-01T23:28:25;14.20;;;5.47;;
2756;SDS011;1386;50.862;6.494;2023-02-01T23:30:52;13.30;;;6.07;;
2756;SDS011;1386;50.862;6.494;2023-02-01T23:33:20;15.73;;;5.80;;
2756;SDS011;1386;50.862;6.494;2023-02-01T23:35:57;14.63;;;5.27;;
2756;SDS011;1386;50.862;6.494;2023-02-01T23:41:24;22.33;;;5.63;;
2756;SDS011;1386;50.862;6.494;2023-02-01T23:43:54;19.17;;;5.07;;
2756;SDS011;1386;50.862;6.494;2023-02-01T23:46:24;14.93;;;5.40;;
2756;SDS011;1386;50.862;6.494;2023-02-01T23:48:53;12.07;;;5.23;;
2756;SDS011;1386;50.862;6.494;2023-02-01T23:51:20;20.77;;;6.00;;
2756;SDS011;1386;50.862;6.494;2023-02-01T23:53:48;21.90;;;7.20;;
2756;SDS011;1386;50.862;6.494;2023-02-01T23:56:16;16.17;;;6.90;;
